NEODyS-2

Near Earth Objects - Dynamic Site
NEODyS ∴ Observatories ∴ Site 691 ∴ Obs & residuals
Contact »
691  ▹ 
OBSERVATIONS AND RESIDUALS

691-Steward Observatory, Kitt Peak-Spacewatch

Detections | Residuals | Detections & Residuals

[1-200] [201-400] [401-600] [601-800] [801-1000] [1001-1200] [1201-1400] [1401-1600] [1601-1800] [1801-2000] [2001-2200] [2201-2400] [2401-2600] [2601-2800] [2801-3000] [3001-3200] [3201-3400] [3401-3600] [3601-3800] [3801-4000] [4001-4200] [4201-4400] [4401-4600] [4601-4800] [4801-5000] [5001-5200] [5201-5400] [5401-5600] [5601-5800] [5801-6000] [6001-6200] [6201-6400] [6401-6600] [6601-6800] [6801-7000] [7001-7200] [7201-7400] [7401-7600] [7601-7800] [7801-8000] [8001-8200] [8201-8400] [8401-8600] [8601-8800] [8801-9000] [9001-9200] [9201-9400] [9401-9600] [9601-9800] [9801-10000] [10001-10200] [10201-10400] [10401-10600] [10601-10800] [10801-11000] [11001-11200] [11201-11400] [11401-11600] [11601-11800] [11801-12000] [12001-12200] [12201-12400] [12401-12600] [12601-12800] [12801-13000] [13001-13200] [13201-13400] [13401-13600] [13601-13800] [13801-14000] [14001-14200] [14201-14400] [14401-14600] [14601-14800] [14801-15000] [15001-15200] [15201-15400] [15401-15600] [15601-15800] [15801-16000] [16001-16200] [16201-16400] [16401-16600] [16601-16800] [16801-17000] [17001-17200] [17201-17400] [17401-17600] [17601-17800] [17801-18000] [18001-18200] [18201-18400] [18401-18600] [18601-18800] [18801-19000] [19001-19200] [19201-19400] [19401-19600] [19601-19800] [19801-20000] [20001-20200] [20201-20400] [20401-20600] [20601-20800] [20801-21000] [21001-21200] [21201-21400] [21401-21600] [21601-21800] [21801-22000] [22001-22200] [22201-22400] [22401-22600] [22601-22800] [22801-23000] [23001-23200] [23201-23400] [23401-23600] [23601-23800] [23801-24000] [24001-24200] [24201-24400] [24401-24600] [24601-24800] [24801-25000] [25001-25200] [25201-25400] [25401-25600] [25601-25800] [25801-26000] [26001-26200] [26201-26400] [26401-26600] [26601-26800] [26801-27000] [27001-27200] [27201-27400] [27401-27600] [27601-27800] [27801-28000] [28001-28200] [28201-28400] [28401-28600] [28601-28800] [28801-29000] [29001-29200] [29201-29400] [29401-29600] [29601-29800] [29801-30000] [30001-30200] [30201-30400] [30401-30600] [30601-30800] [30801-31000] [31001-31200] [31201-31400] [31401-31600] [31601-31800] [31801-32000] [32001-32200] [32201-32400] [32401-32600] [32601-32800] [32801-33000] [33001-33200] [33201-33400] [33401-33600] [33601-33800] [33801-34000] [34001-34200] [34201-34400] [34401-34600] [34601-34800] [34801-35000] [35001-35200] [35201-35400] [35401-35600] [35601-35800] [35801-36000] [36001-36200] [36201-36400] [36401-36600] [36601-36800] [36801-37000] [37001-37200] [37201-37400] [37401-37600] [37601-37800] [37801-38000] [38001-38200] [38201-38400] [38401-38600] [38601-38800] [38801-39000] [39001-39200] [39201-39400] [39401-39600] [39601-39800] [39801-40000] [40001-40200] [40201-40400] [40401-40600] [40601-40800] [40801-41000] [41001-41200] [41201-41400] [41401-41600] [41601-41800] [41801-42000] [42001-42200] [42201-42400] [42401-42600] [42601-42800] [42801-43000] [43001-43200] [43201-43400] [43401-43600] [43601-43800] [43801-44000] [44001-44200] [44201-44400] [44401-44600] [44601-44800] [44801-45000] [45001-45200] [45201-45400] [45401-45600] [45601-45800] [45801-46000] [46001-46200] [46201-46400] [46401-46600] [46601-46800] [46801-47000] [47001-47200] [47201-47400] [47401-47600] [47601-47800] [47801-48000] [48001-48200] [48201-48400] [48401-48600] [48601-48800] [48801-49000] [49001-49200] [49201-49400] [49401-49600] [49601-49800] [49801-50000] [50001-50200] [50201-50388]

Designation T Tech N Date Right Ascension Declination Apparent Magnitude Star Catalog Site code χ Used A Used M
yr-mo-day precision hr:min:sec precision rms F bias residual deg min sec precision rms F bias residual mag/col rms residual
2021CO5 O C H 2021-03-15.25441 1.000E-05 11:27:18.810 1.500E-01 0.500 F 0.236 0.198 -12° 22' 27.70" 1.000E-01 0.500 F 0.056 -0.023 o 691 0.42 Yes No
2021EC1 O C K 2021-03-15.25558 1.000E-05 10:48:49.390 1.500E-01 0.500 F 0.252 -0.235 -05° 30' 20.90" 1.000E-01 0.500 F 0.125 0.168 20.1 R 0.70 -0.11 o 691 0.59 Yes Yes
2021DK O C H 2021-03-15.25911 1.000E-05 10:59:32.090 1.500E-01 0.500 F 0.207 0.185 +01° 20' 25.00" 1.000E-01 0.500 F 0.186 0.180 20.2 R 0.70 0.26 o 691 0.52 Yes Yes
2021CO5 O C H 2021-03-15.26054 1.000E-05 11:27:21.100 1.500E-01 0.500 F 0.236 0.106 -12° 22' 20.40" 1.000E-01 0.500 F 0.056 0.570 o 691 1.20 Yes No
2021CB9 O C H 2021-03-15.27298 1.000E-05 11:04:24.280 1.500E-01 0.500 F 0.076 -0.275 +12° 38' 24.40" 1.000E-01 0.500 F 0.230 0.262 20.1 R 0.70 0.03 o 691 0.76 Yes Yes
Ul O C 2021-03-15.27298 1.000E-05 11:05:23.730 1.500E-01 0.500 F 0.027 -0.359 +12° 21' 44.80" 1.000E-01 0.500 F 0.160 -0.178 20.5 V 0.70 0.19 o 691 0.80 Yes Yes
2014HO129 O C H 2021-03-15.27435 1.000E-05 11:34:42.690 1.500E-01 0.500 F 0.270 -0.327 +01° 45' 59.90" 1.000E-01 0.500 F 0.126 0.289 19.6 R 0.70 0.19 o 691 0.87 Yes Yes
2020WA5 O C H 2021-03-15.27651 1.000E-05 12:22:27.400 1.500E-01 0.500 F 0.406 -0.205 -24° 26' 23.90" 1.000E-01 0.500 F 0.233 0.759 20.4 R 0.70 0.18 o 691 1.59 Yes Yes
2021CB9 O C H 2021-03-15.27897 1.000E-05 11:04:25.840 1.500E-01 0.500 F 0.076 0.058 +12° 38' 33.90" 1.000E-01 0.500 F 0.230 -0.007 20.2 R 0.70 0.13 o 691 0.13 Yes Yes
Ul O C 2021-03-15.27897 1.000E-05 11:05:23.380 1.500E-01 0.500 F 0.027 0.030 +12° 21' 50.20" 1.000E-01 0.500 F 0.160 0.334 20.5 V 0.70 0.19 o 691 0.67 Yes Yes
2014HO129 O C H 2021-03-15.28035 1.000E-05 11:34:42.000 1.500E-01 0.500 F 0.270 -0.041 +01° 46' 21.70" 1.000E-01 0.500 F 0.126 -0.187 19.9 R 0.70 0.49 o 691 0.39 Yes Yes
2020WA5 O C H 2021-03-15.28251 1.000E-05 12:22:26.890 1.500E-01 0.500 F 0.406 -0.164 -24° 26' 21.70" 1.000E-01 0.500 F 0.233 0.185 o 691 0.50 Yes No
2021CB9 O C H 2021-03-15.28497 1.000E-05 11:04:27.350 1.500E-01 0.500 F 0.076 -0.375 +12° 38' 43.80" 1.000E-01 0.500 F 0.230 0.134 20.6 R 0.70 0.53 o 691 0.80 Yes Yes
Ul O C 2021-03-15.28497 1.000E-05 11:05:22.960 1.500E-01 0.500 F 0.027 -0.596 +12° 21' 54.80" 1.000E-01 0.500 F 0.160 0.039 20.2 V 0.70 -0.11 o 691 1.20 Yes Yes
2014HO129 O C H 2021-03-15.28635 1.000E-05 11:34:41.290 1.500E-01 0.500 F 0.270 -0.049 +01° 46' 44.20" 1.000E-01 0.500 F 0.126 0.035 19.7 R 0.70 0.29 o 691 0.12 Yes Yes
2020WA5 O C H 2021-03-15.28850 1.000E-05 12:22:26.380 1.500E-01 0.500 F 0.406 -0.120 -24° 26' 19.20" 1.000E-01 0.500 F 0.233 -0.099 20.7 R 0.70 0.48 o 691 0.32 Yes Yes
1998PB1 O C 2021-03-15.29037 1.000E-05 12:10:30.380 1.500E-01 0.500 F 0.242 -0.296 -12° 43' 06.90" 1.000E-01 0.500 F 0.022 0.229 19.5 V 0.70 0.43 o 691 0.75 Yes Yes
2021DX1 O C H 2021-03-15.29037 1.000E-05 12:11:55.590 1.500E-01 0.500 F 0.242 -0.075 -12° 51' 54.10" 1.000E-01 0.500 F 0.022 0.067 19.5 R 0.70 0.91 o 691 0.21 Yes Yes
2014QC433 O C H 2021-03-15.29231 1.000E-05 11:46:03.920 1.500E-01 0.500 F 0.272 -0.235 +06° 21' 01.50" 1.000E-01 0.500 F 0.364 0.110 21.4 R 0.70 0.70 o 691 0.52 Yes Yes
2021ET2 O C H 2021-03-15.29455 1.000E-05 12:00:08.370 1.500E-01 0.500 F 0.142 0.079 -01° 58' 59.50" 1.000E-01 0.500 F 0.189 0.348 20.6 R 0.70 0.07 o 691 0.72 Yes Yes
2021DX1 O C H 2021-03-15.29642 1.000E-05 12:11:54.750 1.500E-01 0.500 F 0.242 -0.475 -12° 52' 11.20" 1.000E-01 0.500 F 0.022 0.118 19.6 R 0.70 1.00 o 691 0.99 Yes Yes
1998PB1 O C 2021-03-15.29642 1.000E-05 12:10:29.920 1.500E-01 0.500 F 0.242 -0.167 -12° 43' 06.40" 1.000E-01 0.500 F 0.022 0.120 19.5 V 0.70 0.43 o 691 0.41 Yes Yes
2014QC433 O C H 2021-03-15.29834 1.000E-05 11:46:03.510 1.500E-01 0.500 F 0.272 -0.263 +06° 21' 08.00" 1.000E-01 0.500 F 0.364 0.061 21.5 R 0.70 0.80 o 691 0.54 Yes Yes
2021ET2 O C H 2021-03-15.30059 1.000E-05 12:00:08.690 1.500E-01 0.500 F 0.142 -0.066 -01° 58' 54.20" 1.000E-01 0.500 F 0.189 -0.010 20.9 R 0.70 0.37 o 691 0.13 Yes Yes
1998PB1 O C 2021-03-15.30246 1.000E-05 12:10:29.450 1.500E-01 0.500 F 0.242 -0.192 -12° 43' 05.90" 1.000E-01 0.500 F 0.022 0.009 19.3 V 0.70 0.23 o 691 0.38 Yes Yes
2021DX1 O C H 2021-03-15.30246 1.000E-05 12:11:53.960 1.500E-01 0.500 F 0.242 -0.135 -12° 52' 28.20" 1.000E-01 0.500 F 0.022 0.200 19.3 R 0.70 0.70 o 691 0.49 Yes Yes
2014QC433 O C H 2021-03-15.30438 1.000E-05 11:46:03.110 1.500E-01 0.500 F 0.272 -0.130 +06° 21' 14.30" 1.000E-01 0.500 F 0.364 -0.199 21.2 R 0.70 0.50 o 691 0.48 Yes Yes
2021ET2 O C H 2021-03-15.30663 1.000E-05 12:00:09.030 1.500E-01 0.500 F 0.142 0.100 -01° 58' 48.80" 1.000E-01 0.500 F 0.189 -0.271 21.0 R 0.70 0.47 o 691 0.59 Yes Yes
2021EK4 O C H 2021-03-15.30983 1.000E-05 12:06:33.250 1.500E-01 0.500 F 0.210 0.077 -01° 43' 11.60" 1.000E-01 0.500 F 0.274 0.016 20.4 R 0.70 0.67 o 691 0.16 Yes Yes
2006FV35 O C 2021-03-15.30983 1.000E-05 12:06:14.800 1.500E-01 0.500 F 0.210 -0.889 -02° 01' 00.80" 1.000E-01 0.500 F 0.274 0.057 20.9 V 0.70 0.11 o 691 1.79 Yes Yes
2003EH16 O C H 2021-03-15.31363 1.000E-05 12:36:06.070 1.500E-01 0.500 F 0.311 -0.598 -05° 17' 31.00" 1.000E-01 0.500 F 0.162 0.208 20.5 R 0.70 0.19 o 691 1.28 Yes Yes
Masaakikoyama O C 2021-03-15.31363 1.000E-05 12:35:35.110 1.500E-01 0.500 F 0.230 -0.329 -05° 48' 07.30" 1.000E-01 0.500 F 0.173 0.210 19.7 V 0.70 0.46 o 691 0.78 Yes Yes
2021EK4 O C H 2021-03-15.31519 1.000E-05 12:06:34.090 1.500E-01 0.500 F 0.210 -0.344 -01° 42' 53.00" 1.000E-01 0.500 F 0.274 -0.159 20.5 R 0.70 0.77 o 691 0.77 Yes Yes
2006FV35 O C 2021-03-15.31519 1.000E-05 12:06:13.920 1.500E-01 0.500 F 0.210 -0.208 -02° 00' 51.30" 1.000E-01 0.500 F 0.274 -0.550 20.7 V 0.70 -0.09 o 691 1.18 Yes Yes
2003EH16 O C H 2021-03-15.31899 1.000E-05 12:36:05.300 1.500E-01 0.500 F 0.311 -0.419 -05° 17' 35.80" 1.000E-01 0.500 F 0.162 0.212 20.5 R 0.70 0.19 o 691 0.95 Yes Yes
Masaakikoyama O C 2021-03-15.31899 1.000E-05 12:35:34.790 1.500E-01 0.500 F 0.230 -0.380 -05° 48' 04.60" 1.000E-01 0.500 F 0.173 0.192 19.7 V 0.70 0.46 o 691 0.85 Yes Yes
2006FV35 O C 2021-03-15.32054 1.000E-05 12:06:12.940 1.500E-01 0.500 F 0.210 -1.047 -02° 00' 41.30" 1.000E-01 0.500 F 0.274 -0.640 20.5 V 0.70 -0.29 o 691 2.46 Yes Yes
2003EH16 O C H 2021-03-15.32434 1.000E-05 12:36:04.550 1.500E-01 0.500 F 0.311 0.040 -05° 17' 40.70" 1.000E-01 0.500 F 0.162 0.104 20.6 R 0.70 0.29 o 691 0.23 Yes Yes
Masaakikoyama O C 2021-03-15.32434 1.000E-05 12:35:34.470 1.500E-01 0.500 F 0.230 -0.439 -05° 48' 01.90" 1.000E-01 0.500 F 0.173 0.178 19.6 V 0.70 0.36 o 691 0.95 Yes Yes
2021ET1 O C K 2021-03-15.34692 1.000E-05 13:41:06.280 1.500E-01 0.500 F 0.048 -0.836 -17° 40' 21.10" 1.000E-01 0.500 F 0.170 -0.107 20.4 R 0.70 -0.09 o 691 1.71 Yes Yes
2014VL6 O C K 2021-03-15.35207 1.000E-05 13:18:08.770 1.500E-01 0.500 F 0.074 -0.466 +03° 29' 06.30" 1.000E-01 0.500 F 0.283 0.949 21.4 R 0.70 0.24 o 691 2.12 Yes Yes
2021ET1 O C K 2021-03-15.35792 1.000E-05 13:41:05.420 1.500E-01 0.500 F 0.048 0.157 -17° 41' 25.80" 1.000E-01 0.500 F 0.170 0.051 20.1 R 0.70 -0.39 o 691 0.35 Yes Yes
2014VL6 O C K 2021-03-15.36306 1.000E-05 13:18:07.860 1.500E-01 0.500 F 0.074 -0.179 +03° 29' 11.00" 1.000E-01 0.500 F 0.283 -0.019 21.4 R 0.70 0.24 o 691 0.36 Yes Yes
2021ET1 O C K 2021-03-15.36890 1.000E-05 13:41:04.400 1.500E-01 0.500 F 0.048 -1.060 -17° 42' 30.10" 1.000E-01 0.500 F 0.170 0.297 o 691 2.24 Yes No
2014VL6 O C K 2021-03-15.37405 1.000E-05 13:18:06.940 1.500E-01 0.500 F 0.074 -0.024 +03° 29' 16.20" 1.000E-01 0.500 F 0.283 -0.484 22.0 R 0.70 0.85 o 691 0.97 Yes Yes
2012TP139 O C H 2021-03-15.38038 1.000E-05 14:34:42.820 1.500E-01 0.500 F 0.298 -0.335 -26° 59' 45.20" 1.000E-01 0.500 F 0.225 0.127 18.7 R 0.70 -0.02 o 691 0.74 Yes Yes
2021CN4 O C 2021-03-15.38433 1.000E-05 14:17:45.410 1.500E-01 0.500 F 0.356 -0.332 -17° 45' 39.40" 1.000E-01 0.500 F 0.055 -0.035 17.8 V 0.70 0.16 o 691 0.68 Yes Yes
2012TP139 O C H 2021-03-15.38611 1.000E-05 14:34:44.640 1.500E-01 0.500 F 0.298 -0.305 -27° 00' 00.60" 1.000E-01 0.500 F 0.225 0.338 18.8 R 0.70 0.08 o 691 0.94 Yes Yes
2021CN4 O C 2021-03-15.39006 1.000E-05 14:17:47.140 1.500E-01 0.500 F 0.356 -0.360 -17° 45' 12.40" 1.000E-01 0.500 F 0.055 0.005 17.7 V 0.70 0.06 o 691 0.73 Yes Yes
2012TP139 O C H 2021-03-15.39185 1.000E-05 14:34:46.470 1.500E-01 0.500 F 0.298 -0.182 -27° 00' 16.80" 1.000E-01 0.500 F 0.225 -0.237 18.7 R 0.70 -0.02 o 691 0.61 Yes Yes
2021CN4 O C 2021-03-15.39579 1.000E-05 14:17:48.880 1.500E-01 0.500 F 0.356 -0.219 -17° 44' 45.30" 1.000E-01 0.500 F 0.055 0.122 17.7 V 0.70 0.06 o 691 0.51 Yes Yes
2014FN47 O C H 2021-03-15.39808 1.000E-05 15:01:28.800 1.500E-01 0.500 F 0.127 -0.951 -13° 47' 29.60" 1.000E-01 0.500 F 0.030 0.486 20.1 R 0.70 0.04 o 691 2.15 Yes Yes
2014FN47 O C H 2021-03-15.40420 1.000E-05 15:01:29.690 1.500E-01 0.500 F 0.127 0.097 -13° 47' 01.50" 1.000E-01 0.500 F 0.030 -0.028 20.7 R 0.70 0.64 o 691 0.20 Yes Yes
2014FN47 O C H 2021-03-15.41035 1.000E-05 15:01:30.570 1.500E-01 0.500 F 0.127 0.952 -13° 46' 32.90" 1.000E-01 0.500 F 0.030 -0.194 20.6 R 0.70 0.54 o 691 1.96 Yes Yes
2001DE47 O C 2021-03-15.44307 1.000E-05 16:34:39.440 1.500E-01 0.500 F 0.118 -0.009 +17° 27' 00.70" 1.000E-01 0.500 F 0.240 -0.591 21.1 V 0.70 0.09 o 691 1.19 Yes Yes
2001DE47 O C 2021-03-15.44981 1.000E-05 16:34:39.830 1.500E-01 0.500 F 0.118 -0.829 +17° 27' 09.00" 1.000E-01 0.500 F 0.240 0.122 21.3 V 0.70 0.29 o 691 1.68 Yes Yes
2001DE47 O C 2021-03-15.45654 1.000E-05 16:34:40.320 1.500E-01 0.500 F 0.118 -0.200 +17° 27' 16.20" 1.000E-01 0.500 F 0.240 -0.250 21.1 V 0.70 0.09 o 691 0.64 Yes Yes
2021DW1 O C H 2021-03-15.48976 1.000E-05 18:10:22.710 1.500E-01 0.500 F 0.044 -0.287 +31° 10' 56.20" 1.000E-01 0.500 F 0.291 -0.224 o 691 0.73 Yes No
2021DW1 O C H 2021-03-15.49741 1.000E-05 18:10:22.800 1.500E-01 0.500 F 0.044 -0.064 +31° 10' 46.10" 1.000E-01 0.500 F 0.291 -0.592 o 691 1.22 Yes No
2021EP2 O C K 2021-03-18.11550 1.000E-05 10:19:12.050 1.500E-01 0.500 F 0.140 -0.263 +05° 33' 36.90" 1.000E-01 0.500 F 0.145 0.047 21.1 R 0.70 -0.11 o 691 0.54 Yes Yes
2021EP2 O C K 2021-03-18.12238 1.000E-05 10:19:10.820 1.500E-01 0.500 F 0.140 -0.278 +05° 33' 45.50" 1.000E-01 0.500 F 0.145 0.207 20.9 R 0.70 -0.31 o 691 0.70 Yes Yes
2021EP2 O C K 2021-03-18.12926 1.000E-05 10:19:09.620 1.500E-01 0.500 F 0.140 0.207 +05° 33' 53.50" 1.000E-01 0.500 F 0.145 -0.225 21.8 R 0.70 0.58 o 691 0.62 Yes Yes
2021ER4 O C K 2021-03-18.15663 1.000E-05 09:40:23.650 1.500E-01 0.500 F 0.027 0.381 +12° 33' 40.90" 1.000E-01 0.500 F 0.287 -0.107 21.8 R 0.70 0.02 o 691 0.95 Yes Yes
2021ER4 O C K 2021-03-18.17353 1.000E-05 09:40:24.320 1.500E-01 0.500 F 0.027 -0.185 +12° 33' 11.90" 1.000E-01 0.500 F 0.287 -0.118 22.0 R 0.70 0.21 o 691 0.51 Yes Yes
2021ER4 O C K 2021-03-18.19043 1.000E-05 09:40:24.970 1.500E-01 0.500 F 0.027 -0.498 +12° 32' 42.80" 1.000E-01 0.500 F 0.287 -0.027 21.5 R 0.70 -0.29 o 691 1.19 Yes Yes
2021EU4 O C H 2021-03-18.20844 1.000E-05 10:45:58.280 1.500E-01 0.500 F 0.300 -0.675 -13° 42' 44.50" 1.000E-01 0.500 F -0.075 -0.163 19.4 R 0.70 -0.08 o 691 1.39 Yes Yes
2021EU4 O C H 2021-03-18.21166 1.000E-05 10:45:58.960 1.500E-01 0.500 F 0.300 -0.001 -13° 43' 03.20" 1.000E-01 0.500 F -0.075 -0.121 19.7 R 0.70 0.22 o 691 0.24 Yes Yes
2021EU4 O C H 2021-03-18.21597 1.000E-05 10:45:59.820 1.500E-01 0.500 F 0.300 0.209 -13° 43' 27.90" 1.000E-01 0.500 F -0.075 0.218 19.1 R 0.70 -0.38 o 691 0.61 Yes Yes
2021EZ3 O C H 2021-03-18.26998 1.000E-05 13:57:44.730 1.500E-01 0.500 F 0.091 0.064 +12° 32' 01.30" 1.000E-01 0.500 F 0.354 -0.006 19.5 R 0.70 0.02 o 691 0.13 Yes Yes
2021EZ3 O C H 2021-03-18.27455 1.000E-05 13:57:43.560 1.500E-01 0.500 F 0.091 -0.095 +12° 32' 19.90" 1.000E-01 0.500 F 0.354 -0.350 19.2 R 0.70 -0.28 o 691 0.73 Yes Yes
2021EZ3 O C H 2021-03-18.27913 1.000E-05 13:57:42.390 1.500E-01 0.500 F 0.091 -0.126 +12° 32' 39.20" 1.000E-01 0.500 F 0.354 0.003 19.6 R 0.70 0.11 o 691 0.25 Yes Yes
2021DM2 O C K 2021-03-18.30712 1.000E-05 12:15:11.320 1.500E-01 0.500 F 0.140 -0.208 +24° 15' 57.00" 1.000E-01 0.500 F 0.288 -0.037 22.2 R 0.70 0.41 o 691 0.43 Yes Yes
2021DM2 O C K 2021-03-18.32822 1.000E-05 12:15:09.220 1.500E-01 0.500 F 0.140 -0.160 +24° 16' 31.00" 1.000E-01 0.500 F 0.288 0.292 22.1 R 0.70 0.31 o 691 0.69 Yes Yes
2021DM2 O C K 2021-03-18.34932 1.000E-05 12:15:07.110 1.500E-01 0.500 F 0.140 -0.241 +24° 17' 04.30" 1.000E-01 0.500 F 0.288 0.012 21.7 R 0.70 -0.09 o 691 0.49 Yes Yes
2021EL4 O C H 2021-03-18.37988 1.000E-05 10:00:49.290 1.500E-01 0.500 F 0.027 0.224 +06° 57' 33.30" 1.000E-01 0.500 F 0.136 0.205 18.6 R 0.70 -0.10 o 691 0.61 Yes Yes
2021EL4 O C H 2021-03-18.38314 1.000E-05 10:00:50.210 1.500E-01 0.500 F 0.027 0.197 +06° 57' 50.20" 1.000E-01 0.500 F 0.136 0.286 19.0 R 0.70 0.30 o 691 0.70 Yes Yes
2021EL4 O C H 2021-03-18.38748 1.000E-05 10:00:51.450 1.500E-01 0.500 F 0.027 0.259 +06° 58' 12.70" 1.000E-01 0.500 F 0.136 0.443 18.9 R 0.70 0.20 o 691 1.04 Yes Yes
2021FH O C H 2021-03-18.39009 1.000E-05 10:37:47.490 1.500E-01 0.500 F 0.130 0.008 +20° 01' 44.30" 1.000E-01 0.500 F 0.274 0.041 19.9 R 0.70 -0.47 o 691 0.08 Yes Yes
2021FH O C H 2021-03-18.39509 1.000E-05 10:37:47.680 1.500E-01 0.500 F 0.130 0.215 +20° 01' 39.20" 1.000E-01 0.500 F 0.274 -0.266 20.1 R 0.70 -0.27 o 691 0.69 Yes Yes
2021FH O C H 2021-03-18.40259 1.000E-05 10:37:47.950 1.500E-01 0.500 F 0.130 0.020 +20° 01' 32.30" 1.000E-01 0.500 F 0.274 0.131 20.1 R 0.70 -0.27 o 691 0.27 Yes Yes
2021ER1 O C K 2021-03-18.40645 1.000E-05 11:03:21.120 1.500E-01 0.500 F 0.195 -0.017 -01° 57' 22.20" 1.000E-01 0.500 F 0.091 -0.088 21.1 R 0.70 -0.11 o 691 0.20 Yes Yes
2021ER1 O C K 2021-03-18.41718 1.000E-05 11:03:20.250 1.500E-01 0.500 F 0.195 0.348 -01° 57' 58.70" 1.000E-01 0.500 F 0.091 0.047 20.9 R 0.70 -0.31 o 691 0.79 Yes Yes
2021ER1 O C K 2021-03-18.42790 1.000E-05 11:03:19.350 1.500E-01 0.500 F 0.195 0.105 -01° 58' 35.30" 1.000E-01 0.500 F 0.091 0.051 21.3 R 0.70 0.09 o 691 0.28 Yes Yes
2021DF2 O C K 2021-03-18.44332 1.000E-05 13:11:13.230 1.500E-01 0.500 F 0.266 -0.086 +19° 21' 24.40" 1.000E-01 0.500 F 0.241 -0.022 22.1 R 0.70 0.37 o 691 0.20 Yes Yes
2021DF2 O C K 2021-03-18.45217 1.000E-05 13:11:13.220 1.500E-01 0.500 F 0.266 -0.304 +19° 21' 30.90" 1.000E-01 0.500 F 0.241 -0.092 21.6 R 0.70 -0.13 o 691 0.71 Yes Yes
Zephyr O C 2021-03-18.46273 1.000E-05 14:38:30.790 1.500E-01 0.500 F 0.273 -0.014 -10° 09' 08.60" 1.000E-01 0.500 F 0.096 0.027 18.5 V 0.70 0.26 o 691 0.06 Yes Yes
2021EM5 O C K 2021-03-18.46273 1.000E-05 14:40:34.190 1.500E-01 0.500 F 0.240 -0.956 -10° 43' 26.60" 1.000E-01 0.500 F 0.063 0.064 21.6 R 0.70 -0.04 o 691 1.94 Yes Yes
2021EM5 O C K 2021-03-18.47009 1.000E-05 14:40:32.580 1.500E-01 0.500 F 0.240 -0.807 -10° 43' 29.20" 1.000E-01 0.500 F 0.063 0.235 21.4 R 0.70 -0.24 o 691 1.71 Yes Yes
Zephyr O C 2021-03-18.47377 1.000E-05 14:38:30.840 1.500E-01 0.500 F 0.273 -0.120 -10° 09' 04.80" 1.000E-01 0.500 F 0.096 0.097 18.6 V 0.70 0.36 o 691 0.31 Yes Yes
2021EM5 O C K 2021-03-18.47745 1.000E-05 14:40:30.950 1.500E-01 0.500 F 0.240 -0.969 -10° 43' 31.80" 1.000E-01 0.500 F 0.063 0.391 21.2 R 0.70 -0.44 o 691 2.13 Yes Yes
Zephyr O C 2021-03-18.48358 1.000E-05 14:38:30.900 1.500E-01 0.500 F 0.273 0.012 -10° 09' 01.50" 1.000E-01 0.500 F 0.096 0.075 18.5 V 0.70 0.27 o 691 0.15 Yes Yes
2021EP2 O C K 2021-03-19.12711 1.000E-05 10:16:27.380 1.500E-01 0.500 F 0.193 0.185 +05° 53' 35.40" 1.000E-01 0.500 F 0.214 0.050 21.6 R 0.70 0.31 o 691 0.39 Yes Yes
2021EP2 O C K 2021-03-19.13971 1.000E-05 10:16:25.230 1.500E-01 0.500 F 0.193 0.415 +05° 53' 49.70" 1.000E-01 0.500 F 0.214 -0.487 o 691 1.30 Yes No
2021EP2 O C K 2021-03-19.15232 1.000E-05 10:16:23.020 1.500E-01 0.500 F 0.193 -0.079 +05° 54' 05.10" 1.000E-01 0.500 F 0.214 0.092 21.9 R 0.70 0.61 o 691 0.24 Yes Yes
2021EU4 O C K 2021-03-19.16575 1.000E-05 10:49:25.580 1.500E-01 0.500 F 0.184 0.085 -15° 02' 22.90" 1.000E-01 0.500 F -0.035 0.208 19.9 R 0.70 0.09 o 691 0.46 Yes Yes
2021EU4 O C K 2021-03-19.17075 1.000E-05 10:49:26.360 1.500E-01 0.500 F 0.184 0.214 -15° 02' 44.80" 1.000E-01 0.500 F -0.035 0.438 19.8 R 0.70 -0.01 o 691 0.99 Yes Yes
2021EU4 O C K 2021-03-19.17575 1.000E-05 10:49:27.120 1.500E-01 0.500 F 0.184 0.125 -15° 03' 07.40" 1.000E-01 0.500 F -0.035 -0.084 19.8 R 0.70 -0.01 o 691 0.31 Yes Yes
2021FH O C H 2021-03-19.18261 1.000E-05 10:39:40.870 1.500E-01 0.500 F 0.152 -0.309 +19° 51' 41.90" 1.000E-01 0.500 F 0.265 -0.154 19.7 R 0.70 -0.33 o 691 0.70 Yes Yes
2021FH O C H 2021-03-19.18555 1.000E-05 10:39:41.020 1.500E-01 0.500 F 0.152 -0.256 +19° 51' 39.90" 1.000E-01 0.500 F 0.265 -0.120 19.9 R 0.70 -0.12 o 691 0.57 Yes Yes
2021FH O C H 2021-03-19.18849 1.000E-05 10:39:41.160 1.500E-01 0.500 F 0.152 -0.307 +19° 51' 37.80" 1.000E-01 0.500 F 0.265 -0.158 19.7 R 0.70 -0.32 o 691 0.70 Yes Yes
2021EL4 O C H 2021-03-20.11632 1.000E-05 10:09:12.750 1.500E-01 0.500 F 0.227 -0.395 +08° 53' 16.30" 1.000E-01 0.500 F 0.029 0.079 19.2 R 0.70 -0.13 o 691 0.81 Yes Yes
2021EL4 O C H 2021-03-20.11988 1.000E-05 10:09:13.270 1.500E-01 0.500 F 0.227 -0.205 +08° 53' 27.20" 1.000E-01 0.500 F 0.029 -0.155 19.6 R 0.70 0.27 o 691 0.52 Yes Yes
2021EL4 O C H 2021-03-20.12523 1.000E-05 10:09:14.020 1.500E-01 0.500 F 0.227 -0.229 +08° 53' 44.40" 1.000E-01 0.500 F 0.029 0.357 19.5 R 0.70 0.17 o 691 0.86 Yes Yes
2021FH O C H 2021-03-20.12877 1.000E-05 10:42:40.630 1.500E-01 0.500 F 0.043 0.092 +19° 32' 08.90" 1.000E-01 0.500 F 0.323 0.163 19.2 R 0.70 -0.31 o 691 0.38 Yes Yes
2021FH O C H 2021-03-20.13233 1.000E-05 10:42:41.140 1.500E-01 0.500 F 0.043 0.004 +19° 32' 04.80" 1.000E-01 0.500 F 0.323 0.020 19.4 R 0.70 -0.11 o 691 0.04 Yes Yes
2021FH O C H 2021-03-20.13768 1.000E-05 10:42:41.890 1.500E-01 0.500 F 0.043 -0.178 +19° 31' 58.80" 1.000E-01 0.500 F 0.323 0.050 19.1 R 0.70 -0.41 o 691 0.37 Yes Yes
2021EO4 O C K 2021-03-20.14502 1.000E-05 11:09:05.860 1.500E-01 0.500 F 0.178 0.336 +26° 58' 09.00" 1.000E-01 0.500 F 0.126 0.075 21.2 R 0.70 -0.11 o 691 0.70 Yes Yes
2021EO4 O C K 2021-03-20.16158 1.000E-05 11:09:04.030 1.500E-01 0.500 F 0.178 -0.181 +26° 58' 21.70" 1.000E-01 0.500 F 0.126 -0.314 21.4 R 0.70 0.09 o 691 0.74 Yes Yes
2021EO4 O C K 2021-03-20.17817 1.000E-05 11:09:02.230 1.500E-01 0.500 F 0.178 -0.206 +26° 58' 35.40" 1.000E-01 0.500 F 0.126 0.300 21.4 R 0.70 0.09 o 691 0.74 Yes Yes
2021DF2 O C K 2021-03-20.20281 1.000E-05 13:11:35.980 1.500E-01 0.500 F 0.266 0.063 +19° 42' 52.30" 1.000E-01 0.500 F 0.241 0.050 22.1 R 0.70 0.35 o 691 0.18 Yes Yes
2021DF2 O C K 2021-03-20.22672 1.000E-05 13:11:35.940 1.500E-01 0.500 F 0.266 -0.597 +19° 43' 10.00" 1.000E-01 0.500 F 0.241 -0.170 21.9 R 0.70 0.15 o 691 1.39 Yes Yes
Apophis O C 2021-03-20.25269 1.000E-05 08:35:34.500 1.500E-01 0.500 F 0.045 -0.268 +03° 33' 58.20" 1.000E-01 0.500 F 0.150 -0.122 16.3 V 0.70 0.03 o 691 0.59 Yes Yes
Apophis O C 2021-03-20.25389 1.000E-05 08:35:34.280 1.500E-01 0.500 F 0.045 -0.311 +03° 34' 01.30" 1.000E-01 0.500 F 0.150 -0.133 16.3 V 0.70 0.03 o 691 0.68 Yes Yes
Apophis O C 2021-03-20.25510 1.000E-05 08:35:34.060 1.500E-01 0.500 F 0.045 -0.329 +03° 34' 04.40" 1.000E-01 0.500 F 0.150 -0.170 16.3 V 0.70 0.03 o 691 0.74 Yes Yes
Apollo O C 2021-03-20.35462 1.000E-05 10:48:17.300 1.500E-01 0.500 F 0.045 0.086 +17° 11' 38.20" 1.000E-01 0.500 F 0.181 0.193 18.9 V 0.70 0.31 o 691 0.42 Yes Yes
2021FR O C K 2021-03-20.35462 1.000E-05 10:49:51.280 1.500E-01 0.500 F 0.113 -0.120 +17° 47' 44.30" 1.000E-01 0.500 F 0.316 -0.010 21.5 R 0.70 0.29 o 691 0.26 Yes Yes
2021FR O C K 2021-03-20.37017 1.000E-05 10:49:53.350 1.500E-01 0.500 F 0.113 -0.309 +17° 46' 00.90" 1.000E-01 0.500 F 0.316 -0.014 21.3 R 0.70 0.09 o 691 0.67 Yes Yes
Apollo O C 2021-03-20.37795 1.000E-05 10:48:14.660 1.500E-01 0.500 F 0.045 -0.164 +17° 11' 47.90" 1.000E-01 0.500 F 0.181 0.035 19.0 V 0.70 0.41 o 691 0.33 Yes Yes
2021FR O C K 2021-03-20.38573 1.000E-05 10:49:55.480 1.500E-01 0.500 F 0.113 0.025 +17° 44' 17.10" 1.000E-01 0.500 F 0.316 -0.302 21.6 R 0.70 0.39 o 691 0.66 Yes Yes
Apollo O C 2021-03-20.40017 1.000E-05 10:48:12.210 1.500E-01 0.500 F 0.045 0.424 +17° 11' 57.40" 1.000E-01 0.500 F 0.181 0.186 19.0 V 0.70 0.41 o 691 0.93 Yes Yes
2021EM5 O C K 2021-03-20.41934 1.000E-05 14:33:48.800 1.500E-01 0.500 F 0.227 0.465 -10° 55' 06.80" 1.000E-01 0.500 F 0.107 -0.072 21.5 R 0.70 -0.10 o 691 0.95 Yes Yes
2021EM5 O C K 2021-03-20.43217 1.000E-05 14:33:45.900 1.500E-01 0.500 F 0.227 0.296 -10° 55' 10.60" 1.000E-01 0.500 F 0.107 0.337 21.4 R 0.70 -0.20 o 691 0.95 Yes Yes
2021EM5 O C K 2021-03-20.44502 1.000E-05 14:33:43.010 1.500E-01 0.500 F 0.227 0.331 -10° 55' 15.50" 1.000E-01 0.500 F 0.107 -0.397 21.8 R 0.70 0.20 o 691 1.03 Yes Yes
2021EC4 O C K 2021-03-21.11648 1.000E-05 08:12:58.400 1.500E-01 0.500 F -0.062 -0.377 +27° 58' 24.40" 1.000E-01 0.500 F 0.190 -0.324 o 691 1.19 Yes No
2021EC4 O C K 2021-03-21.12265 1.000E-05 08:12:52.020 1.500E-01 0.500 F -0.062 0.262 +27° 58' 23.90" 1.000E-01 0.500 F 0.190 0.045 o 691 0.68 Yes No
2021EN5 O C K 2021-03-22.19455 1.000E-05 11:57:44.210 1.500E-01 0.500 F 0.213 0.819 +02° 31' 41.50" 1.000E-01 0.500 F 0.222 0.263 22.7 R 0.70 0.81 o 691 2.08 Yes Yes
2021EN5 O C K 2021-03-22.21835 1.000E-05 11:57:42.020 1.500E-01 0.500 F 0.213 -0.317 +02° 31' 45.60" 1.000E-01 0.500 F 0.222 -1.168 22.4 R 0.70 0.51 o 691 2.92 Yes Yes
2021EN5 O C K 2021-03-22.24216 1.000E-05 11:57:39.830 1.500E-01 0.500 F 0.213 -0.586 +02° 31' 52.70" 1.000E-01 0.500 F 0.222 0.464 23.0 R 0.70 1.11 o 691 1.83 Yes Yes
2021FU O C K 2021-03-22.25998 1.000E-05 12:15:01.440 1.500E-01 0.500 F 0.281 0.144 +01° 27' 56.80" 1.000E-01 0.500 F 0.177 0.079 19.2 R 0.70 0.62 o 691 0.35 Yes Yes
2021FU O C K 2021-03-22.26291 1.000E-05 12:15:09.860 1.500E-01 0.500 F 0.281 -0.305 +01° 27' 06.30" 1.000E-01 0.500 F 0.177 0.028 19.2 R 0.70 0.62 o 691 0.65 Yes Yes
2021FU O C K 2021-03-22.26582 1.000E-05 12:15:18.250 1.500E-01 0.500 F 0.281 -0.422 +01° 26' 16.00" 1.000E-01 0.500 F 0.177 -0.106 18.9 R 0.70 0.32 o 691 0.91 Yes Yes
2013HT15 O C K 2021-03-22.27044 1.000E-05 12:33:23.330 1.500E-01 0.500 F 0.271 -1.204 -00° 15' 45.30" 1.000E-01 0.500 F 0.264 0.134 21.8 R 0.70 0.81 o 691 2.45 Yes Yes
2013HT15 O C K 2021-03-22.27975 1.000E-05 12:33:21.860 1.500E-01 0.500 F 0.271 -0.272 -00° 15' 37.10" 1.000E-01 0.500 F 0.264 0.377 21.2 R 0.70 0.22 o 691 0.94 Yes Yes
2013HT15 O C K 2021-03-22.28906 1.000E-05 12:33:20.400 1.500E-01 0.500 F 0.271 0.833 -00° 15' 29.20" 1.000E-01 0.500 F 0.264 0.319 22.2 R 0.70 1.22 o 691 1.80 Yes Yes
2021EZ3 O C K 2021-03-22.31714 1.000E-05 13:47:28.460 1.500E-01 0.500 F 0.232 0.246 +15° 35' 11.50" 1.000E-01 0.500 F 0.320 -0.009 20.5 R 0.70 0.31 o 691 0.49 Yes Yes
2021EZ3 O C K 2021-03-22.32263 1.000E-05 13:47:27.540 1.500E-01 0.500 F 0.232 -0.145 +15° 35' 21.80" 1.000E-01 0.500 F 0.320 -0.108 20.8 R 0.70 0.61 o 691 0.36 Yes Yes
2021EZ3 O C K 2021-03-22.32811 1.000E-05 13:47:26.640 1.500E-01 0.500 F 0.232 -0.223 +15° 35' 31.90" 1.000E-01 0.500 F 0.320 -0.343 20.7 R 0.70 0.51 o 691 0.82 Yes Yes
2021EM3 O C K 2021-03-22.40145 1.000E-05 15:25:21.210 1.500E-01 0.500 F 0.134 -0.058 +29° 13' 58.00" 1.000E-01 0.500 F 0.245 0.469 o 691 0.97 Yes No
2021EM3 O C K 2021-03-22.41075 1.000E-05 15:25:23.190 1.500E-01 0.500 F 0.134 -0.182 +29° 13' 49.10" 1.000E-01 0.500 F 0.245 0.073 o 691 0.41 Yes No
2021EM3 O C K 2021-03-22.42005 1.000E-05 15:25:25.160 1.500E-01 0.500 F 0.134 -0.287 +29° 13' 40.10" 1.000E-01 0.500 F 0.245 -0.168 o 691 0.69 Yes No
2013WA44 O C K 2021-03-22.51059 1.000E-05 16:03:15.390 1.500E-01 0.500 F 0.220 -0.458 -01° 56' 51.70" 1.000E-01 0.500 F 0.215 -0.442 20.3 R 0.70 0.12 o 691 1.28 Yes Yes
2013WA44 O C K 2021-03-22.51369 1.000E-05 16:03:16.070 1.500E-01 0.500 F 0.220 0.067 -01° 56' 52.90" 1.000E-01 0.500 F 0.215 0.475 19.5 R 0.70 -0.68 o 691 0.96 Yes Yes
2013WA44 O C K 2021-03-22.51679 1.000E-05 16:03:16.700 1.500E-01 0.500 F 0.220 -0.163 -01° 56' 55.20" 1.000E-01 0.500 F 0.215 0.290 19.7 R 0.70 -0.48 o 691 0.67 Yes Yes
2021EQ O C K 2021-03-23.17888 1.000E-05 08:55:29.210 1.500E-01 0.500 F 0.022 -0.289 -16° 25' 30.00" 1.000E-01 0.500 F -0.174 0.367 o 691 0.96 Yes No
2021EQ O C K 2021-03-23.18554 1.000E-05 08:55:30.060 1.500E-01 0.500 F 0.022 -0.037 -16° 25' 59.00" 1.000E-01 0.500 F -0.174 0.057 o 691 0.14 Yes No
2021EZ2 O C K 2021-03-23.24411 1.000E-05 11:43:37.400 1.500E-01 0.500 F 0.064 0.871 +19° 49' 31.00" 1.000E-01 0.500 F 0.330 0.083 o 691 2.22 Yes No
2021EZ2 O C K 2021-03-23.25938 1.000E-05 11:43:33.550 1.500E-01 0.500 F 0.064 -0.880 +19° 49' 55.70" 1.000E-01 0.500 F 0.330 0.025 o 691 2.24 Yes No
2021FO2 O C K 2021-03-23.28804 1.000E-05 13:03:42.310 1.500E-01 0.500 F 0.471 -0.105 -00° 06' 02.10" 1.000E-01 0.500 F 0.335 -0.068 21.2 R 0.70 0.19 o 691 0.35 Yes Yes
2021FO2 O C K 2021-03-23.29804 1.000E-05 13:03:47.880 1.500E-01 0.500 F 0.471 0.158 -00° 05' 25.60" 1.000E-01 0.500 F 0.335 -0.088 21.7 R 0.70 0.69 o 691 0.48 Yes Yes
Akhenaten O C K 2021-03-23.32195 1.000E-05 13:15:09.680 1.500E-01 0.500 F 0.121 -0.030 +04° 29' 28.20" 1.000E-01 0.500 F 0.257 -0.867 o 691 1.74 Yes No
Akhenaten O C K 2021-03-23.32556 1.000E-05 13:15:08.770 1.500E-01 0.500 F 0.121 0.336 +04° 29' 34.80" 1.000E-01 0.500 F 0.257 0.041 o 691 0.68 Yes No
Akhenaten O C K 2021-03-23.32917 1.000E-05 13:15:07.840 1.500E-01 0.500 F 0.121 0.408 +04° 29' 40.20" 1.000E-01 0.500 F 0.257 -0.250 o 691 0.96 Yes No
2021ED5 O C K 2021-03-23.39157 1.000E-05 15:38:21.260 1.500E-01 0.500 F 0.083 0.565 -14° 26' 34.50" 1.000E-01 0.500 F 0.158 -0.273 20.0 R 0.70 -0.12 o 691 1.27 Yes Yes
2021ED5 O C K 2021-03-23.39639 1.000E-05 15:38:22.490 1.500E-01 0.500 F 0.083 -0.193 -14° 26' 33.30" 1.000E-01 0.500 F 0.158 0.188 20.1 R 0.70 -0.02 o 691 0.54 Yes Yes
2021ED5 O C K 2021-03-23.40120 1.000E-05 15:38:23.770 1.500E-01 0.500 F 0.083 -0.184 -14° 26' 32.60" 1.000E-01 0.500 F 0.158 0.147 20.3 R 0.70 0.18 o 691 0.48 Yes Yes
2013WA44 O C K 2021-03-23.41166 1.000E-05 16:06:53.620 1.500E-01 0.500 F 0.110 0.227 -02° 07' 17.90" 1.000E-01 0.500 F 0.125 0.139 20.0 R 0.70 -0.16 o 691 0.54 Yes Yes
2013WA44 O C K 2021-03-23.41958 1.000E-05 16:06:55.250 1.500E-01 0.500 F 0.110 -0.439 -02° 07' 23.50" 1.000E-01 0.500 F 0.125 0.168 20.1 R 0.70 -0.06 o 691 0.95 Yes Yes
2017TA4 O C K 2021-03-31.49118 1.000E-05 17:33:25.980 1.500E-01 0.500 F 0.064 0.115 +19° 34' 54.30" 1.000E-01 0.500 F 0.256 -0.060 o 691 0.27 Yes No
2017TA4 O C K 2021-03-31.49742 1.000E-05 17:33:29.100 1.500E-01 0.500 F 0.064 0.029 +19° 35' 24.60" 1.000E-01 0.500 F 0.256 -0.263 o 691 0.54 Yes No
2015DJ215 O C K 2021-04-01.12385 1.000E-05 07:09:28.220 1.500E-01 0.500 F 0.007 0.169 +17° 14' 06.30" 1.000E-01 0.500 F 0.266 -0.071 20.7 R 0.70 -0.05 o 691 0.38 Yes Yes
2015DJ215 O C K 2021-04-01.13727 1.000E-05 07:09:24.790 1.500E-01 0.500 F 0.007 -0.187 +17° 13' 15.50" 1.000E-01 0.500 F 0.266 -0.203 20.5 R 0.70 -0.25 o 691 0.58 Yes Yes
2021CD3 O C K 2021-04-01.16474 1.000E-05 08:23:00.960 1.500E-01 0.500 F 0.084 0.064 +22° 44' 59.40" 1.000E-01 0.500 F 0.235 -0.024 21.6 R 0.70 0.38 o 691 0.15 Yes Yes
2021CD3 O C K 2021-04-01.17997 1.000E-05 08:23:01.340 1.500E-01 0.500 F 0.084 -0.343 +22° 45' 05.70" 1.000E-01 0.500 F 0.235 -0.110 21.7 R 0.70 0.48 o 691 0.74 Yes Yes
2021CD3 O C K 2021-04-01.19519 1.000E-05 08:23:01.780 1.500E-01 0.500 F 0.084 0.045 +22° 45' 12.00" 1.000E-01 0.500 F 0.235 -0.154 o 691 0.33 Yes No
2011SO32 O C K 2021-04-01.20797 1.000E-05 10:39:14.430 1.500E-01 0.500 F 0.028 -0.192 -00° 46' 39.80" 1.000E-01 0.500 F 0.184 -0.093 21.6 R 0.70 0.57 o 691 0.43 Yes Yes
2021DX1 O C H 2021-04-01.21340 1.000E-05 11:56:56.850 1.500E-01 0.500 F 0.170 -0.064 -18° 48' 49.00" 1.000E-01 0.500 F 0.107 -0.113 21.2 R 0.70 1.04 o 691 0.26 Yes Yes
2011SO32 O C K 2021-04-01.21954 1.000E-05 10:39:14.850 1.500E-01 0.500 F 0.028 0.394 -00° 46' 24.10" 1.000E-01 0.500 F 0.184 0.387 20.7 R 0.70 -0.33 o 691 1.11 Yes Yes
2021DX1 O C H 2021-04-01.22497 1.000E-05 11:56:56.370 1.500E-01 0.500 F 0.170 -0.285 -18° 48' 53.40" 1.000E-01 0.500 F 0.107 0.436 21.2 R 0.70 1.04 o 691 1.08 Yes Yes
2011SO32 O C K 2021-04-01.23132 1.000E-05 10:39:15.210 1.500E-01 0.500 F 0.069 -0.065 -00° 46' 09.00" 1.000E-01 0.500 F 0.157 0.025 21.6 R 0.70 0.57 o 691 0.14 Yes Yes
2021DX1 O C H 2021-04-01.23700 1.000E-05 11:56:55.940 1.500E-01 0.500 F 0.170 0.550 -18° 48' 58.30" 1.000E-01 0.500 F 0.107 0.593 o 691 1.64 Yes No
2021FE3 O C K 2021-04-01.24577 1.000E-05 11:18:06.930 1.500E-01 0.500 F 0.378 0.244 +21° 40' 18.90" 1.000E-01 0.500 F 0.264 -0.059 19.6 R 0.70 0.11 o 691 0.51 Yes Yes
2021EZ4 O C K 2021-04-01.24947 1.000E-05 12:26:11.700 1.500E-01 0.500 F 0.022 -0.516 -10° 45' 27.60" 1.000E-01 0.500 F 0.077 0.197 20.4 R 0.70 0.06 o 691 1.11 Yes Yes
2013HT15 O C K 2021-04-01.25359 1.000E-05 12:04:40.580 1.500E-01 0.500 F 0.232 -0.219 +02° 14' 35.90" 1.000E-01 0.500 F 0.219 -0.026 21.6 R 0.70 0.66 o 691 0.44 Yes Yes
2021FE3 O C K 2021-04-01.26314 1.000E-05 11:18:05.600 1.500E-01 0.500 F 0.378 -0.309 +21° 36' 13.90" 1.000E-01 0.500 F 0.264 -0.220 19.8 R 0.70 0.31 o 691 0.77 Yes Yes
2021EZ4 O C K 2021-04-01.26741 1.000E-05 12:26:08.560 1.500E-01 0.500 F 0.022 -0.330 -10° 46' 29.90" 1.000E-01 0.500 F 0.077 -0.019 20.1 R 0.70 -0.24 o 691 0.67 Yes Yes
2021FE3 O C K 2021-04-01.28129 1.000E-05 11:18:04.290 1.500E-01 0.500 F 0.378 0.088 +21° 31' 58.20" 1.000E-01 0.500 F 0.264 0.046 19.7 R 0.70 0.21 o 691 0.20 Yes Yes
2021EZ4 O C K 2021-04-01.28602 1.000E-05 12:26:05.260 1.500E-01 0.500 F 0.022 -0.363 -10° 47' 34.10" 1.000E-01 0.500 F 0.077 -0.068 20.1 R 0.70 -0.24 o 691 0.75 Yes Yes
2013HT15 O C K 2021-04-01.29014 1.000E-05 12:04:33.680 1.500E-01 0.500 F 0.232 -0.013 +02° 15' 09.50" 1.000E-01 0.500 F 0.219 -0.131 21.2 R 0.70 0.26 o 691 0.26 Yes Yes
2010FF10 O C K 2021-04-01.29945 1.000E-05 12:40:05.570 1.500E-01 0.500 F 0.246 -0.145 +05° 26' 38.40" 1.000E-01 0.500 F 0.114 0.241 20.5 R 0.70 0.59 o 691 0.57 Yes Yes
Akhenaten O C K 2021-04-01.30398 1.000E-05 12:34:27.150 1.500E-01 0.500 F 0.230 0.261 +08° 23' 41.80" 1.000E-01 0.500 F 0.187 -0.164 20.1 R 0.70 0.51 o 691 0.62 Yes Yes
2021CO5 O C K 2021-04-01.30899 1.000E-05 12:59:57.920 1.500E-01 0.500 F 0.254 0.053 -06° 16' 16.20" 1.000E-01 0.500 F 0.200 -0.034 20.9 R 0.70 0.59 o 691 0.12 Yes Yes
2010FF10 O C K 2021-04-01.31968 1.000E-05 12:40:04.530 1.500E-01 0.500 F 0.246 -0.299 +05° 27' 18.10" 1.000E-01 0.500 F 0.114 0.002 20.3 R 0.70 0.39 o 691 0.60 Yes Yes
Akhenaten O C K 2021-04-01.32421 1.000E-05 12:34:21.090 1.500E-01 0.500 F 0.230 0.398 +08° 24' 11.80" 1.000E-01 0.500 F 0.187 -0.223 20.3 R 0.70 0.71 o 691 0.91 Yes Yes
2021CO5 O C K 2021-04-01.32943 1.000E-05 13:00:02.140 1.500E-01 0.500 F 0.254 -0.407 -06° 15' 52.60" 1.000E-01 0.500 F 0.200 -0.149 21.4 R 0.70 1.09 o 691 0.89 Yes Yes
2010FF10 O C K 2021-04-01.34021 1.000E-05 12:40:03.500 1.500E-01 0.500 F 0.246 -0.080 +05° 27' 58.50" 1.000E-01 0.500 F 0.114 -0.130 20.5 R 0.70 0.59 o 691 0.31 Yes Yes
Akhenaten O C K 2021-04-01.34474 1.000E-05 12:34:14.930 1.500E-01 0.500 F 0.230 0.345 +08° 24' 42.50" 1.000E-01 0.500 F 0.187 0.053 20.0 R 0.70 0.41 o 691 0.70 Yes Yes
2021CO5 O C K 2021-04-01.34989 1.000E-05 13:00:06.460 1.500E-01 0.500 F 0.254 0.595 -06° 15' 27.50" 1.000E-01 0.500 F 0.200 1.121 20.7 R 0.70 0.38 o 691 2.59 Yes Yes
2021EH4 O C K 2021-04-01.36275 1.000E-05 14:13:24.790 1.500E-01 0.500 F 0.024 -0.072 -01° 43' 13.20" 1.000E-01 0.500 F 0.195 -0.051 19.2 R 0.70 0.25 o 691 0.20 Yes Yes
2021EH4 O C K 2021-04-01.37246 1.000E-05 14:13:22.970 1.500E-01 0.500 F 0.024 -0.402 -01° 45' 40.90" 1.000E-01 0.500 F 0.195 -0.152 18.8 R 0.70 -0.15 o 691 0.90 Yes Yes
2021EH4 O C K 2021-04-01.38218 1.000E-05 14:13:21.170 1.500E-01 0.500 F 0.024 -0.349 -01° 48' 08.60" 1.000E-01 0.500 F 0.195 0.073 19.2 R 0.70 0.26 o 691 0.76 Yes Yes
2021ET2 O C K 2021-04-01.40397 1.000E-05 12:18:44.580 1.500E-01 0.500 F 0.152 -0.062 +02° 13' 22.00" 1.000E-01 0.500 F 0.314 -0.003 21.1 R 0.70 0.24 o 691 0.14 Yes Yes
2014HO129 O C K 2021-04-01.41225 1.000E-05 10:59:17.440 1.500E-01 0.500 F 0.144 0.815 +20° 41' 05.50" 1.000E-01 0.500 F 0.315 -0.048 20.3 R 0.70 0.26 o 691 1.65 Yes Yes
2021FR1 O C K 2021-04-01.41714 1.000E-05 12:49:47.000 1.500E-01 0.500 F 0.198 0.320 +16° 21' 45.00" 1.000E-01 0.500 F 0.196 0.031 19.9 R 0.70 -0.23 o 691 0.66 Yes Yes
2021ET2 O C K 2021-04-01.42475 1.000E-05 12:18:45.650 1.500E-01 0.500 F 0.152 0.319 +02° 13' 36.90" 1.000E-01 0.500 F 0.314 -0.129 21.4 R 0.70 0.54 o 691 0.69 Yes Yes
2014HO129 O C K 2021-04-01.43294 1.000E-05 10:59:14.770 1.500E-01 0.500 F 0.144 0.340 +20° 42' 25.30" 1.000E-01 0.500 F 0.315 -0.014 o 691 0.69 Yes No
2021FR1 O C K 2021-04-01.43783 1.000E-05 12:49:41.640 1.500E-01 0.500 F 0.198 0.244 +16° 22' 18.40" 1.000E-01 0.500 F 0.196 -0.116 20.3 R 0.70 0.17 o 691 0.56 Yes Yes
2021ET2 O C K 2021-04-01.44544 1.000E-05 12:18:46.730 1.500E-01 0.500 F 0.152 0.472 +02° 13' 51.70" 1.000E-01 0.500 F 0.314 -0.262 21.2 R 0.70 0.34 o 691 1.09 Yes Yes
2014HO129 O C K 2021-04-01.45382 1.000E-05 10:59:12.120 1.500E-01 0.500 F 0.144 0.299 +20° 43' 45.70" 1.000E-01 0.500 F 0.315 -0.064 20.5 R 0.70 0.46 o 691 0.63 Yes Yes
2021FR1 O C K 2021-04-01.45966 1.000E-05 12:49:36.020 1.500E-01 0.500 F 0.198 0.329 +16° 22' 53.70" 1.000E-01 0.500 F 0.196 -0.089 21.1 R 0.70 0.97 o 691 0.70 Yes Yes
2002JX8 O C K 2021-04-01.47457 1.000E-05 19:36:42.770 1.500E-01 0.500 F -0.100 -4.895 -14° 43' 20.40" 1.000E-01 0.500 F 0.123 -0.611 o 691 9.74 No No

[1-200] [201-400] [401-600] [601-800] [801-1000] [1001-1200] [1201-1400] [1401-1600] [1601-1800] [1801-2000] [2001-2200] [2201-2400] [2401-2600] [2601-2800] [2801-3000] [3001-3200] [3201-3400] [3401-3600] [3601-3800] [3801-4000] [4001-4200] [4201-4400] [4401-4600] [4601-4800] [4801-5000] [5001-5200] [5201-5400] [5401-5600] [5601-5800] [5801-6000] [6001-6200] [6201-6400] [6401-6600] [6601-6800] [6801-7000] [7001-7200] [7201-7400] [7401-7600] [7601-7800] [7801-8000] [8001-8200] [8201-8400] [8401-8600] [8601-8800] [8801-9000] [9001-9200] [9201-9400] [9401-9600] [9601-9800] [9801-10000] [10001-10200] [10201-10400] [10401-10600] [10601-10800] [10801-11000] [11001-11200] [11201-11400] [11401-11600] [11601-11800] [11801-12000] [12001-12200] [12201-12400] [12401-12600] [12601-12800] [12801-13000] [13001-13200] [13201-13400] [13401-13600] [13601-13800] [13801-14000] [14001-14200] [14201-14400] [14401-14600] [14601-14800] [14801-15000] [15001-15200] [15201-15400] [15401-15600] [15601-15800] [15801-16000] [16001-16200] [16201-16400] [16401-16600] [16601-16800] [16801-17000] [17001-17200] [17201-17400] [17401-17600] [17601-17800] [17801-18000] [18001-18200] [18201-18400] [18401-18600] [18601-18800] [18801-19000] [19001-19200] [19201-19400] [19401-19600] [19601-19800] [19801-20000] [20001-20200] [20201-20400] [20401-20600] [20601-20800] [20801-21000] [21001-21200] [21201-21400] [21401-21600] [21601-21800] [21801-22000] [22001-22200] [22201-22400] [22401-22600] [22601-22800] [22801-23000] [23001-23200] [23201-23400] [23401-23600] [23601-23800] [23801-24000] [24001-24200] [24201-24400] [24401-24600] [24601-24800] [24801-25000] [25001-25200] [25201-25400] [25401-25600] [25601-25800] [25801-26000] [26001-26200] [26201-26400] [26401-26600] [26601-26800] [26801-27000] [27001-27200] [27201-27400] [27401-27600] [27601-27800] [27801-28000] [28001-28200] [28201-28400] [28401-28600] [28601-28800] [28801-29000] [29001-29200] [29201-29400] [29401-29600] [29601-29800] [29801-30000] [30001-30200] [30201-30400] [30401-30600] [30601-30800] [30801-31000] [31001-31200] [31201-31400] [31401-31600] [31601-31800] [31801-32000] [32001-32200] [32201-32400] [32401-32600] [32601-32800] [32801-33000] [33001-33200] [33201-33400] [33401-33600] [33601-33800] [33801-34000] [34001-34200] [34201-34400] [34401-34600] [34601-34800] [34801-35000] [35001-35200] [35201-35400] [35401-35600] [35601-35800] [35801-36000] [36001-36200] [36201-36400] [36401-36600] [36601-36800] [36801-37000] [37001-37200] [37201-37400] [37401-37600] [37601-37800] [37801-38000] [38001-38200] [38201-38400] [38401-38600] [38601-38800] [38801-39000] [39001-39200] [39201-39400] [39401-39600] [39601-39800] [39801-40000] [40001-40200] [40201-40400] [40401-40600] [40601-40800] [40801-41000] [41001-41200] [41201-41400] [41401-41600] [41601-41800] [41801-42000] [42001-42200] [42201-42400] [42401-42600] [42601-42800] [42801-43000] [43001-43200] [43201-43400] [43401-43600] [43601-43800] [43801-44000] [44001-44200] [44201-44400] [44401-44600] [44601-44800] [44801-45000] [45001-45200] [45201-45400] [45401-45600] [45601-45800] [45801-46000] [46001-46200] [46201-46400] [46401-46600] [46601-46800] [46801-47000] [47001-47200] [47201-47400] [47401-47600] [47601-47800] [47801-48000] [48001-48200] [48201-48400] [48401-48600] [48601-48800] [48801-49000] [49001-49200] [49201-49400] [49401-49600] [49601-49800] [49801-50000] [50001-50200] [50201-50388]